createdAt,value
2023-12-26T00:00:59.486Z,1.1
2023-12-26T00:01:59.438Z,1.1
2023-12-26T00:03:07.013Z,1.1
2023-12-26T00:03:59.482Z,1.1
2023-12-26T00:04:59.476Z,1.1
2023-12-26T00:05:59.696Z,1.1
2023-12-26T00:06:59.441Z,1.1
2023-12-26T00:07:59.439Z,1.1
2023-12-26T00:08:59.491Z,1.1
2023-12-26T00:10:09.731Z,1.1
2023-12-26T00:10:59.495Z,1.1
2023-12-26T00:11:59.558Z,1.1
2023-12-26T00:12:59.467Z,1.1
2023-12-26T00:13:59.460Z,1.1
2023-12-26T00:14:59.465Z,1.1
2023-12-26T00:15:59.454Z,1.1
2023-12-26T00:16:59.437Z,1.1
2023-12-26T00:17:59.540Z,1.1
2023-12-26T00:18:59.720Z,1.1
2023-12-26T00:19:59.458Z,1.1
2023-12-26T00:20:59.480Z,1.1
2023-12-26T00:21:59.444Z,1.1
2023-12-26T00:22:59.445Z,1.1
2023-12-26T00:23:59.453Z,1.1
2023-12-26T00:24:59.449Z,1.1
2023-12-26T00:25:59.584Z,1.1
2023-12-26T00:26:59.484Z,1.1
2023-12-26T00:28:05.987Z,1.1
2023-12-26T00:28:59.441Z,1.1
2023-12-26T00:29:59.506Z,1.1
2023-12-26T00:30:59.487Z,1.1
2023-12-26T00:31:59.456Z,1.1
2023-12-26T00:32:59.676Z,1.1
2023-12-26T00:33:59.642Z,1.1
2023-12-26T00:34:59.458Z,1.1
2023-12-26T00:35:59.520Z,1.1
2023-12-26T00:36:59.479Z,1.1
2023-12-26T00:37:59.445Z,1.1
2023-12-26T00:38:59.507Z,1.1
2023-12-26T00:40:01.479Z,1.1
2023-12-26T00:40:59.442Z,1.1
2023-12-26T00:41:59.470Z,1.1
2023-12-26T00:42:59.440Z,1.1
2023-12-26T00:43:59.464Z,1.1
2023-12-26T00:44:59.502Z,1.1
2023-12-26T00:45:59.457Z,1.1
2023-12-26T00:46:59.467Z,1.1
2023-12-26T00:47:59.650Z,1.1
2023-12-26T00:48:59.571Z,1.1
2023-12-26T00:49:59.464Z,1.1
2023-12-26T00:50:59.490Z,1.1
2023-12-26T00:51:59.455Z,1.1
2023-12-26T00:52:59.457Z,1.1
2023-12-26T00:53:59.494Z,1.1
2023-12-26T00:54:59.444Z,1.1
2023-12-26T00:55:59.449Z,1.1
2023-12-26T00:57:05.687Z,1.1
2023-12-26T00:57:59.441Z,1.1
2023-12-26T00:58:59.473Z,1.1
2023-12-26T00:59:59.496Z,1.1
2023-12-26T01:00:59.490Z,1.1
2023-12-26T01:01:59.461Z,1.1
2023-12-26T01:02:59.711Z,1.1
2023-12-26T01:03:59.564Z,1.1
2023-12-26T01:04:59.493Z,1.1
2023-12-26T01:05:59.499Z,1.1
2023-12-26T01:06:59.454Z,1.1
2023-12-26T01:07:59.453Z,1.1
2023-12-26T01:08:59.475Z,1.1
2023-12-26T01:09:59.442Z,1.1
2023-12-26T01:10:59.453Z,1.1
2023-12-26T01:11:59.539Z,1.1
2023-12-26T01:12:59.447Z,1.1
2023-12-26T01:13:59.452Z,1.1
2023-12-26T01:14:59.496Z,1.1
2023-12-26T01:15:59.462Z,1.1
2023-12-26T01:16:59.468Z,1.1
2023-12-26T01:18:00.105Z,1.1
2023-12-26T01:18:59.652Z,1.1
2023-12-26T01:19:59.441Z,1.1
2023-12-26T01:20:59.492Z,1.1
2023-12-26T01:21:59.442Z,1.1
2023-12-26T01:22:59.449Z,1.1
2023-12-26T01:23:59.481Z,1.1
2023-12-26T01:24:59.465Z,1.1
2023-12-26T01:25:59.470Z,1.1
2023-12-26T01:26:59.484Z,1.1
2023-12-26T01:27:59.462Z,1.1
2023-12-26T01:28:59.469Z,1.1
2023-12-26T01:29:59.476Z,1.1
2023-12-26T01:31:06.293Z,1.1
2023-12-26T01:31:59.452Z,1.1
2023-12-26T01:33:06.274Z,1.1
2023-12-26T01:33:59.540Z,1.1
2023-12-26T01:34:59.457Z,1.1
2023-12-26T01:35:59.521Z,1.1
2023-12-26T01:36:59.472Z,1.1
2023-12-26T01:37:59.476Z,1.1
2023-12-26T01:38:59.476Z,1.1
2023-12-26T01:39:59.490Z,1.1
2023-12-26T01:40:59.503Z,1.1
2023-12-26T01:41:59.553Z,1.1
2023-12-26T01:42:59.529Z,1.1
2023-12-26T01:43:59.601Z,1.1
2023-12-26T01:44:59.471Z,1.1
2023-12-26T01:45:59.443Z,1.1
2023-12-26T01:47:00.413Z,1.1
2023-12-26T01:47:59.655Z,1.1
2023-12-26T01:48:59.651Z,1.1
2023-12-26T01:49:59.509Z,1.1
2023-12-26T01:50:59.539Z,1.1
2023-12-26T01:51:59.509Z,1.1
2023-12-26T01:52:59.476Z,1.1
2023-12-26T01:53:59.505Z,1.1
2023-12-26T01:54:59.466Z,1.1
2023-12-26T01:55:59.464Z,1.1
2023-12-26T01:56:59.566Z,1.1
2023-12-26T01:57:59.472Z,1.1
2023-12-26T01:58:59.470Z,1.1
2023-12-26T01:59:59.504Z,1.1
2023-12-26T02:01:05.835Z,1.1
2023-12-26T02:01:59.484Z,1.1
2023-12-26T02:02:59.868Z,1.1
2023-12-26T02:03:59.520Z,1.1
2023-12-26T02:04:59.508Z,1.1
2023-12-26T02:05:59.496Z,1.1
2023-12-26T02:06:59.477Z,1.1
2023-12-26T02:07:59.453Z,1.1
2023-12-26T02:08:59.495Z,1.1
2023-12-26T02:09:59.475Z,1.1
2023-12-26T02:10:59.465Z,1.1
2023-12-26T02:11:59.518Z,1.1
2023-12-26T02:12:59.466Z,1.1
2023-12-26T02:13:59.494Z,1.1
2023-12-26T02:14:59.514Z,1.1
2023-12-26T02:15:59.459Z,1.1
2023-12-26T02:16:59.464Z,1.1
2023-12-26T02:17:59.681Z,1.1
2023-12-26T02:18:59.620Z,1.1
2023-12-26T02:19:59.549Z,1.1
2023-12-26T02:20:59.460Z,1.1
2023-12-26T02:21:59.442Z,1.1
2023-12-26T02:23:00.486Z,1.1
2023-12-26T02:23:59.502Z,1.1
2023-12-26T02:24:59.447Z,1.1
2023-12-26T02:25:59.471Z,1.1
2023-12-26T02:26:59.540Z,1.1
2023-12-26T02:27:59.446Z,1.1
2023-12-26T02:28:59.445Z,1.1
2023-12-26T02:29:59.522Z,1.1
2023-12-26T02:30:59.497Z,1.1
2023-12-26T02:31:59.456Z,1.1
2023-12-26T02:32:59.941Z,1.1
2023-12-26T02:33:59.566Z,1.1
2023-12-26T02:34:59.434Z,1.1
2023-12-26T02:35:59.462Z,1.1
2023-12-26T02:36:59.440Z,1.1
2023-12-26T02:37:59.433Z,1.1
2023-12-26T02:38:59.454Z,1.1
2023-12-26T02:39:59.455Z,1.1
2023-12-26T02:40:59.447Z,1.1
2023-12-26T02:41:59.498Z,1.1
2023-12-26T02:42:59.438Z,1.1
2023-12-26T02:43:59.448Z,1.1
2023-12-26T02:44:59.584Z,1.1
2023-12-26T02:45:59.485Z,1.1
2023-12-26T02:46:59.453Z,1.1
2023-12-26T02:47:59.645Z,1.1
2023-12-26T02:48:59.644Z,1.1
2023-12-26T02:49:59.456Z,1.1
2023-12-26T02:50:59.538Z,1.1
2023-12-26T02:51:59.443Z,1.1
2023-12-26T02:52:59.453Z,1.1
2023-12-26T02:53:59.452Z,1.1
2023-12-26T02:54:59.443Z,1.1
2023-12-26T02:55:59.438Z,1.1
2023-12-26T02:56:59.468Z,1.1
2023-12-26T02:57:59.464Z,1.1
2023-12-26T02:58:59.456Z,1.1
2023-12-26T02:59:59.480Z,1.1
2023-12-26T03:00:59.345Z,1.1
2023-12-26T03:01:59.448Z,1.1
2023-12-26T03:02:59.703Z,1.1
2023-12-26T03:03:59.591Z,1.1
2023-12-26T03:04:59.501Z,1.1
2023-12-26T03:05:59.557Z,1.1
2023-12-26T03:06:59.439Z,1.1
2023-12-26T03:07:59.455Z,1.1
2023-12-26T03:08:59.519Z,1.1
2023-12-26T03:09:59.479Z,1.1
2023-12-26T03:10:59.444Z,1.1
2023-12-26T03:11:59.532Z,1.1
2023-12-26T03:12:59.456Z,1.1
2023-12-26T03:13:59.464Z,1.1
2023-12-26T03:14:59.518Z,1.1
2023-12-26T03:15:59.457Z,1.1
2023-12-26T03:16:59.464Z,1.1
2023-12-26T03:17:59.603Z,1.1
2023-12-26T03:18:59.623Z,1.1
2023-12-26T03:19:59.496Z,1.1
2023-12-26T03:20:59.465Z,1.1
2023-12-26T03:21:59.455Z,1.1
2023-12-26T03:22:59.455Z,1.1
2023-12-26T03:23:59.502Z,1.1
2023-12-26T03:24:59.484Z,1.1
2023-12-26T03:25:59.463Z,1.1
2023-12-26T03:26:59.498Z,1.1
2023-12-26T03:27:59.480Z,1.1
2023-12-26T03:28:59.464Z,1.1
2023-12-26T03:29:59.523Z,1.1
2023-12-26T03:30:59.504Z,1.1
2023-12-26T03:31:59.452Z,1.1
2023-12-26T03:32:59.850Z,1.1
2023-12-26T03:33:59.608Z,1.1
2023-12-26T03:34:59.470Z,1.1
2023-12-26T03:35:59.517Z,1.1
2023-12-26T03:36:59.459Z,1.1
2023-12-26T03:37:59.469Z,1.1
2023-12-26T03:38:59.471Z,1.1
2023-12-26T03:39:59.461Z,1.1
2023-12-26T03:40:59.453Z,1.1
2023-12-26T03:41:59.496Z,1.1
2023-12-26T03:42:59.463Z,1.1
2023-12-26T03:43:59.466Z,1.1
2023-12-26T03:44:59.520Z,1.1
2023-12-26T03:45:59.470Z,1.1
2023-12-26T03:46:59.495Z,1.1
2023-12-26T03:47:59.674Z,1.1
2023-12-26T03:48:59.563Z,1.1
2023-12-26T03:49:59.591Z,1.1
2023-12-26T03:50:59.509Z,1.1
2023-12-26T03:51:59.478Z,1.1
2023-12-26T03:52:59.632Z,1.1
2023-12-26T03:53:59.487Z,1.1
2023-12-26T03:54:59.559Z,1.1
2023-12-26T03:55:59.468Z,1.1
2023-12-26T03:56:59.495Z,1.1
2023-12-26T03:57:59.450Z,1.1
2023-12-26T03:58:59.463Z,1.1
2023-12-26T03:59:59.534Z,1.1
2023-12-26T04:00:59.470Z,1.1
2023-12-26T04:01:59.445Z,1.1
2023-12-26T04:03:15.263Z,1.1
2023-12-26T04:03:59.578Z,1.1
2023-12-26T04:04:59.530Z,1.1
2023-12-26T04:05:59.484Z,1.1
2023-12-26T04:06:59.455Z,1.1
2023-12-26T04:07:59.460Z,1.1
2023-12-26T04:08:59.504Z,1.1
2023-12-26T04:10:08.072Z,1.1
2023-12-26T04:10:59.463Z,1.1
2023-12-26T04:11:59.487Z,1.1
2023-12-26T04:12:59.443Z,1.1
2023-12-26T04:13:59.447Z,1.1
2023-12-26T04:14:59.500Z,1.1
2023-12-26T04:15:59.460Z,1.1
2023-12-26T04:16:59.455Z,1.1
2023-12-26T04:17:59.534Z,1.1
2023-12-26T04:18:59.592Z,1.1
2023-12-26T04:19:59.463Z,1.1
2023-12-26T04:20:59.497Z,1.1
2023-12-26T04:21:59.445Z,1.1
2023-12-26T04:22:59.483Z,1.1
2023-12-26T04:23:59.483Z,1.1
2023-12-26T04:24:59.452Z,1.1
2023-12-26T04:25:59.453Z,1.1
2023-12-26T04:26:59.494Z,1.1
2023-12-26T04:27:59.700Z,1.1
2023-12-26T04:28:59.451Z,1.1
2023-12-26T04:29:59.495Z,1.1
2023-12-26T04:30:59.472Z,1.1
2023-12-26T04:31:59.442Z,1.1
2023-12-26T04:32:59.933Z,1.1
2023-12-26T04:33:59.666Z,1.1
2023-12-26T04:34:59.465Z,1.1
2023-12-26T04:35:59.484Z,1.1
2023-12-26T04:36:59.462Z,1.1
2023-12-26T04:38:09.036Z,1.1
2023-12-26T04:38:59.546Z,1.1
2023-12-26T04:39:59.454Z,1.1
2023-12-26T04:40:59.451Z,1.1
2023-12-26T04:41:59.451Z,1.1
2023-12-26T04:42:59.473Z,1.1
2023-12-26T04:43:59.498Z,1.1
2023-12-26T04:44:59.495Z,1.1
2023-12-26T04:45:59.463Z,1.1
2023-12-26T04:46:59.468Z,1.1
2023-12-26T04:47:59.632Z,1.1
2023-12-26T04:48:59.587Z,1.1
2023-12-26T04:49:59.466Z,1.1
2023-12-26T04:50:59.483Z,1.1
2023-12-26T04:52:04.633Z,1.1
2023-12-26T04:52:59.456Z,1.1
2023-12-26T04:53:59.487Z,1.1
2023-12-26T04:54:59.462Z,1.1
2023-12-26T04:55:59.463Z,1.1
2023-12-26T04:56:59.532Z,1.1
2023-12-26T04:57:59.448Z,1.1
2023-12-26T04:58:59.461Z,1.1
2023-12-26T04:59:59.702Z,1.1
2023-12-26T05:00:59.495Z,1.1
2023-12-26T05:01:59.470Z,1.1
2023-12-26T05:02:59.982Z,1.1
2023-12-26T05:03:59.486Z,1.1
2023-12-26T05:04:59.479Z,1.1
2023-12-26T05:05:59.535Z,1.1
2023-12-26T05:06:59.464Z,1.1
2023-12-26T05:07:59.464Z,1.1
2023-12-26T05:08:59.496Z,1.1
2023-12-26T05:09:59.455Z,1.1
2023-12-26T05:10:59.443Z,1.1
2023-12-26T05:11:59.527Z,1.1
2023-12-26T05:13:08.397Z,1.1
2023-12-26T05:13:59.460Z,1.1
2023-12-26T05:14:59.575Z,1.1
2023-12-26T05:15:59.474Z,1.1
2023-12-26T05:16:59.535Z,1.1
2023-12-26T05:22:09.729Z,1.1
2023-12-26T05:22:59.859Z,1.1
2023-12-26T05:23:59.444Z,1.1
2023-12-26T05:25:00.694Z,1.1
2023-12-26T05:26:04.859Z,1.1
2023-12-26T05:26:59.477Z,1.1
2023-12-26T05:27:59.442Z,1.1
2023-12-26T05:28:59.414Z,1.1
2023-12-26T05:29:59.448Z,1.1
2023-12-26T05:30:59.433Z,1.1
2023-12-26T05:31:59.410Z,1.1
2023-12-26T05:32:59.847Z,1.1
2023-12-26T05:33:59.547Z,1.1
2023-12-26T05:34:59.413Z,1.1
2023-12-26T05:35:59.413Z,1.1
2023-12-26T05:36:59.401Z,1.1
2023-12-26T05:37:59.399Z,1.1
2023-12-26T05:38:59.449Z,1.1
2023-12-26T05:39:59.404Z,1.1
2023-12-26T05:40:59.406Z,1.1
2023-12-26T05:41:59.430Z,1.1
2023-12-26T05:42:59.763Z,1.1
2023-12-26T05:43:59.417Z,1.1
2023-12-26T05:44:59.491Z,1.1
2023-12-26T05:45:59.415Z,1.1
2023-12-26T05:46:59.453Z,1.1
2023-12-26T05:47:59.707Z,1.1
2023-12-26T05:49:00.073Z,1.1
2023-12-26T05:49:59.604Z,1.1
2023-12-26T05:50:59.519Z,1.1
2023-12-26T05:51:59.399Z,1.1
2023-12-26T05:52:59.680Z,1.1
2023-12-26T05:53:59.558Z,1.1
2023-12-26T05:54:59.504Z,1.1
2023-12-26T05:55:59.401Z,1.1
2023-12-26T05:56:59.511Z,1.1
2023-12-26T05:58:02.630Z,1.1
2023-12-26T05:58:59.459Z,1.1
2023-12-26T05:59:59.644Z,1.1
2023-12-26T06:00:59.541Z,1.1
2023-12-26T06:01:59.518Z,1.1
2023-12-26T06:02:59.955Z,1.1
2023-12-26T06:03:59.572Z,1.1
2023-12-26T06:04:59.540Z,1.1
2023-12-26T06:05:59.515Z,1.1
2023-12-26T06:06:59.504Z,1.1
2023-12-26T06:07:59.424Z,1.1
2023-12-26T06:08:59.507Z,1.1
2023-12-26T06:09:59.419Z,1.1
2023-12-26T06:10:59.426Z,1.1
2023-12-26T06:11:59.457Z,1.1
2023-12-26T06:12:59.420Z,1.1
2023-12-26T06:14:08.912Z,1.1
2023-12-26T06:14:59.470Z,1.1
2023-12-26T06:15:59.421Z,1.1
2023-12-26T06:16:59.407Z,1.1
2023-12-26T06:17:59.503Z,1.1
2023-12-26T06:18:59.607Z,1.1
2023-12-26T06:19:59.531Z,1.1
2023-12-26T06:20:59.482Z,1.1
2023-12-26T06:21:59.396Z,1.1
2023-12-26T06:22:59.428Z,1.1
2023-12-26T06:23:59.426Z,1.1
2023-12-26T06:25:01.995Z,1.1
2023-12-26T06:25:59.407Z,1.1
2023-12-26T06:26:59.415Z,1.1
2023-12-26T06:27:59.418Z,1.1
2023-12-26T06:28:59.414Z,1.1
2023-12-26T06:29:59.437Z,1.1
2023-12-26T06:30:59.457Z,1.1
2023-12-26T06:31:59.401Z,1.1
2023-12-26T06:33:00.046Z,1.1
2023-12-26T06:33:59.576Z,1.1
2023-12-26T06:34:59.433Z,1.1
2023-12-26T06:35:59.453Z,1.1
2023-12-26T06:36:59.415Z,1.1
2023-12-26T06:37:59.416Z,1.1
2023-12-26T06:38:59.441Z,1.1
2023-12-26T06:39:59.423Z,1.1
2023-12-26T06:40:59.429Z,1.1
2023-12-26T06:41:59.452Z,1.1
2023-12-26T06:42:59.453Z,1.3
2023-12-26T06:43:59.434Z,1.6
2023-12-26T06:44:59.430Z,1.9
2023-12-26T06:45:59.418Z,2.3
2023-12-26T06:46:59.403Z,2.8
2023-12-26T06:47:59.481Z,3.4
2023-12-26T06:48:59.462Z,4
2023-12-26T06:49:59.409Z,4.8
2023-12-26T06:50:59.441Z,5.7
2023-12-26T06:51:59.398Z,6.6
2023-12-26T06:52:59.414Z,7.7
2023-12-26T06:53:59.448Z,9
2023-12-26T06:54:59.421Z,10.5
2023-12-26T06:55:59.413Z,12.2
2023-12-26T06:56:59.449Z,14.1
2023-12-26T06:57:59.414Z,16.2
2023-12-26T06:58:59.421Z,18.5
2023-12-26T06:59:59.455Z,20.9
2023-12-26T07:00:59.475Z,23.5
2023-12-26T07:01:59.397Z,26.8
2023-12-26T07:02:59.914Z,30.6
2023-12-26T07:03:59.512Z,34.9
2023-12-26T07:04:59.473Z,39.8
2023-12-26T07:05:59.496Z,44.8
2023-12-26T07:06:59.436Z,51.7
2023-12-26T07:07:59.409Z,60.5
2023-12-26T07:08:59.431Z,71.5
2023-12-26T07:09:59.425Z,85.5
2023-12-26T07:10:59.419Z,101.1
2023-12-26T07:11:59.442Z,116.7
2023-12-26T07:12:59.410Z,130
2023-12-26T07:13:59.411Z,141.3
2023-12-26T07:14:59.426Z,150
2023-12-26T07:15:59.437Z,157.4
2023-12-26T07:16:59.402Z,167.1
2023-12-26T07:18:00.067Z,175.2
2023-12-26T07:19:00.080Z,188.3
2023-12-26T07:20:09.057Z,207.2
2023-12-26T07:20:59.505Z,228
2023-12-26T07:21:59.403Z,244.9
2023-12-26T07:22:59.590Z,260
2023-12-26T07:23:59.511Z,279.4
2023-12-26T07:24:59.400Z,296.6
2023-12-26T07:25:59.396Z,314.9
2023-12-26T07:26:59.430Z,326.4
2023-12-26T07:27:59.431Z,338.3
2023-12-26T07:28:59.406Z,359.1
2023-12-26T07:29:59.456Z,376.7
2023-12-26T07:30:59.454Z,385.9
2023-12-26T07:31:59.398Z,395.2
2023-12-26T07:32:59.821Z,399.9
2023-12-26T07:33:59.568Z,395.2
2023-12-26T07:34:59.408Z,395.2
2023-12-26T07:35:59.454Z,404.8
2023-12-26T07:36:59.418Z,414.5
2023-12-26T07:38:06.434Z,429.7
2023-12-26T07:38:59.441Z,440.1
2023-12-26T07:39:59.430Z,456.2
2023-12-26T07:40:59.438Z,472.9
2023-12-26T07:41:59.440Z,490.1
2023-12-26T07:42:59.437Z,502
2023-12-26T07:43:59.420Z,520.3
2023-12-26T07:44:59.458Z,532.9
2023-12-26T07:45:59.401Z,559
2023-12-26T07:46:59.408Z,579.4
2023-12-26T07:47:59.516Z,600.6
2023-12-26T07:48:59.579Z,622.5
2023-12-26T07:49:59.591Z,653
2023-12-26T07:50:59.417Z,685.1
2023-12-26T07:51:59.405Z,718.6
2023-12-26T07:52:59.419Z,753.8
2023-12-26T07:53:59.435Z,781.4
2023-12-26T07:54:59.416Z,809.9
2023-12-26T07:55:59.399Z,849.6
2023-12-26T07:57:00.642Z,859.8
2023-12-26T07:57:59.429Z,901.9
2023-12-26T07:58:59.423Z,934.9
2023-12-26T08:00:03.630Z,969
2023-12-26T08:00:59.436Z,1028.7
2023-12-26T08:01:59.416Z,1066.3
2023-12-26T08:02:59.666Z,1105.3
2023-12-26T08:03:59.482Z,1132
2023-12-26T08:04:59.433Z,1159.4
2023-12-26T08:05:59.530Z,1201.7
2023-12-26T08:06:59.420Z,1216.2
2023-12-26T08:07:59.415Z,1245.7
2023-12-26T08:08:59.501Z,1245.7
2023-12-26T08:09:59.437Z,1245.7
2023-12-26T08:10:59.399Z,1230.8
2023-12-26T08:11:59.432Z,1216.2
2023-12-26T08:12:59.498Z,1187.5
2023-12-26T08:13:59.425Z,1187.5
2023-12-26T08:15:05.684Z,1173.3
2023-12-26T08:15:59.416Z,1173.3
2023-12-26T08:16:59.426Z,1159.4
2023-12-26T08:17:59.624Z,1159.4
2023-12-26T08:18:59.644Z,1145.6
2023-12-26T08:19:59.444Z,1132
2023-12-26T08:20:59.522Z,1132
2023-12-26T08:22:08.717Z,1132
2023-12-26T08:22:59.426Z,1132
2023-12-26T08:23:59.433Z,1132
2023-12-26T08:24:59.436Z,1132
2023-12-26T08:25:59.429Z,1132
2023-12-26T08:26:59.455Z,1145.6
2023-12-26T08:27:59.462Z,1159.4
2023-12-26T08:28:59.424Z,1173.3
2023-12-26T08:29:59.469Z,1187.5
2023-12-26T08:30:59.432Z,1201.7
2023-12-26T08:31:59.399Z,1216.2
2023-12-26T08:32:59.704Z,1245.7
2023-12-26T08:33:59.532Z,1260.7
2023-12-26T08:34:59.419Z,1275.8
2023-12-26T08:35:59.449Z,1306.7
2023-12-26T08:36:59.419Z,1322.4
2023-12-26T08:37:59.409Z,1306.7
2023-12-26T08:38:59.426Z,1322.4
2023-12-26T08:39:59.421Z,1338.3
2023-12-26T08:40:59.409Z,1354.4
2023-12-26T08:41:59.423Z,1370.7
2023-12-26T08:42:59.536Z,1387.2
2023-12-26T08:43:59.417Z,1387.2
2023-12-26T08:44:59.447Z,1370.7
2023-12-26T08:45:59.422Z,1338.3
2023-12-26T08:46:59.421Z,1306.7
2023-12-26T08:47:59.566Z,1275.8
2023-12-26T08:48:59.596Z,1275.8
2023-12-26T08:49:59.405Z,1275.8
2023-12-26T08:50:59.439Z,1291.2
2023-12-26T08:51:59.403Z,1291.2
2023-12-26T08:52:59.452Z,1306.7
2023-12-26T08:54:00.548Z,1338.3
2023-12-26T08:54:59.419Z,1370.7
2023-12-26T08:55:59.486Z,1387.2
2023-12-26T08:56:59.430Z,1437.9
2023-12-26T08:57:59.404Z,1508.3
2023-12-26T08:58:59.419Z,1563.4
2023-12-26T08:59:59.434Z,1620.5
2023-12-26T09:00:59.408Z,1679.7
2023-12-26T09:01:59.404Z,1699.9
2023-12-26T09:03:06.218Z,1741
2023-12-26T09:03:59.473Z,1741
2023-12-26T09:04:59.406Z,1762
2023-12-26T09:05:59.550Z,1762
2023-12-26T09:06:59.493Z,1783.3
2023-12-26T09:07:59.414Z,1783.3
2023-12-26T09:08:59.455Z,1804.7
2023-12-26T09:09:59.422Z,1848.4
2023-12-26T09:10:59.428Z,1893.1
2023-12-26T09:11:59.465Z,1962.2
2023-12-26T09:12:59.691Z,2108.2
2023-12-26T09:13:59.416Z,2211.5
2023-12-26T09:14:59.431Z,2265.1
2023-12-26T09:15:59.427Z,2292.3
2023-12-26T09:16:59.410Z,2319.9
2023-12-26T09:17:59.510Z,2376
2023-12-26T09:18:59.512Z,2433.5
2023-12-26T09:20:02.401Z,2462.8
2023-12-26T09:20:59.432Z,2433.5
2023-12-26T09:21:59.406Z,2404.6
2023-12-26T09:22:59.499Z,2433.5
2023-12-26T09:23:59.433Z,2433.5
2023-12-26T09:24:59.421Z,2552.8
2023-12-26T09:25:59.398Z,2614.6
2023-12-26T09:27:03.508Z,2552.8
2023-12-26T09:27:59.438Z,2552.8
2023-12-26T09:28:59.417Z,2552.8
2023-12-26T09:29:59.482Z,2552.8
2023-12-26T09:30:59.479Z,2522.4
2023-12-26T09:31:59.441Z,2522.4
2023-12-26T09:32:59.718Z,2522.4
2023-12-26T09:33:59.599Z,2522.4
2023-12-26T09:34:59.417Z,2492.4
2023-12-26T09:35:59.429Z,2492.4
2023-12-26T09:36:59.397Z,2492.4
2023-12-26T09:37:59.396Z,2492.4
2023-12-26T09:38:59.400Z,2492.4
2023-12-26T09:39:59.403Z,2492.4
2023-12-26T09:41:08.994Z,2462.8
2023-12-26T09:41:59.455Z,2462.8
2023-12-26T09:42:59.411Z,2462.8
2023-12-26T09:43:59.421Z,2492.4
2023-12-26T09:44:59.452Z,2522.4
2023-12-26T09:45:59.399Z,2552.8
2023-12-26T09:46:59.419Z,2583.5
2023-12-26T09:47:59.645Z,2646
2023-12-26T09:48:59.564Z,2710.1
2023-12-26T09:49:59.670Z,2742.6
2023-12-26T09:50:59.558Z,2775.6
2023-12-26T09:51:59.499Z,2809
2023-12-26T09:52:59.532Z,2809
2023-12-26T09:53:59.469Z,2842.8
2023-12-26T09:54:59.399Z,2911.7
2023-12-26T09:55:59.398Z,2946.7
2023-12-26T09:56:59.466Z,2982.2
2023-12-26T09:57:59.450Z,2982.2
2023-12-26T09:58:59.414Z,2946.7
2023-12-26T09:59:59.457Z,2877.1
2023-12-26T10:00:59.424Z,2877.1
2023-12-26T10:01:59.428Z,2809
2023-12-26T10:02:59.829Z,2809
2023-12-26T10:03:59.454Z,2742.6
2023-12-26T10:04:59.458Z,2677.9
2023-12-26T10:05:59.457Z,2646
2023-12-26T10:06:59.428Z,2583.5
2023-12-26T10:07:59.478Z,2552.8
2023-12-26T10:08:59.444Z,2492.4
2023-12-26T10:09:59.428Z,2433.5
2023-12-26T10:10:59.413Z,2433.5
2023-12-26T10:11:59.469Z,2376
2023-12-26T10:12:59.500Z,2376
2023-12-26T10:13:59.516Z,2347.8
2023-12-26T10:14:59.430Z,2376
2023-12-26T10:15:59.401Z,2404.6
2023-12-26T10:16:59.424Z,2433.5
2023-12-26T10:17:59.535Z,2462.8
2023-12-26T10:18:59.527Z,2492.4
2023-12-26T10:19:59.499Z,2462.8
2023-12-26T10:20:59.466Z,2433.5
2023-12-26T10:21:59.422Z,2347.8
2023-12-26T10:22:59.468Z,2347.8
2023-12-26T10:23:59.479Z,2319.9
2023-12-26T10:24:59.423Z,2319.9
2023-12-26T10:25:59.397Z,2462.8
2023-12-26T10:26:59.443Z,2492.4
2023-12-26T10:27:59.432Z,2552.8
2023-12-26T10:28:59.399Z,2552.8
2023-12-26T10:29:59.464Z,2492.4
2023-12-26T10:30:59.449Z,2462.8
2023-12-26T10:31:59.434Z,2462.8
2023-12-26T10:32:59.904Z,2433.5
2023-12-26T10:33:59.508Z,2404.6
2023-12-26T10:34:59.445Z,2376
2023-12-26T10:35:59.453Z,2404.6
2023-12-26T10:36:59.430Z,2462.8
2023-12-26T10:37:59.430Z,2522.4
2023-12-26T10:38:59.469Z,2614.6
2023-12-26T10:39:59.423Z,2742.6
2023-12-26T10:40:59.405Z,2809
2023-12-26T10:41:59.424Z,2946.7
2023-12-26T10:43:00.072Z,3018
2023-12-26T10:44:03.775Z,3091.1
2023-12-26T10:44:59.434Z,3018
2023-12-26T10:45:59.421Z,2946.7
2023-12-26T10:46:59.424Z,2809
2023-12-26T10:47:59.510Z,2677.9
2023-12-26T10:48:59.633Z,2614.6
2023-12-26T10:49:59.515Z,2614.6
2023-12-26T10:50:59.448Z,2677.9
2023-12-26T10:51:59.437Z,2710.1
2023-12-26T10:52:59.576Z,2809
2023-12-26T10:53:59.476Z,2982.2
2023-12-26T10:55:00.915Z,3204.1
2023-12-26T10:55:59.410Z,3321.1
2023-12-26T10:56:59.434Z,3483.7
2023-12-26T10:57:59.413Z,3654.5
2023-12-26T10:59:07.203Z,3742.9
2023-12-26T10:59:59.494Z,3833.5
2023-12-26T11:00:59.483Z,3926.3
2023-12-26T11:02:07.507Z,3926.3
2023-12-26T11:02:59.879Z,3926.3
2023-12-26T11:03:59.548Z,4021.3
2023-12-26T11:04:59.436Z,4218.4
2023-12-26T11:05:59.501Z,4320.5
2023-12-26T11:06:59.417Z,4320.5
2023-12-26T11:07:59.461Z,4372.4
2023-12-26T11:08:59.423Z,4320.5
2023-12-26T11:09:59.417Z,4320.5
2023-12-26T11:10:59.417Z,4168.3
2023-12-26T11:12:01.945Z,3879.6
2023-12-26T11:13:06.596Z,3833.5
2023-12-26T11:13:59.439Z,3698.5
2023-12-26T11:14:59.449Z,3654.5
2023-12-26T11:15:59.429Z,3483.7
2023-12-26T11:16:59.428Z,2982.2
2023-12-26T11:17:59.489Z,3018
2023-12-26T11:18:59.694Z,2677.9
2023-12-26T11:19:59.413Z,2552.8
2023-12-26T11:20:59.463Z,2376
2023-12-26T11:21:59.422Z,2238.1
2023-12-26T11:22:59.422Z,2159.2
2023-12-26T11:23:59.447Z,2133.6
2023-12-26T11:24:59.748Z,2433.5
2023-12-26T11:25:59.451Z,2238.1
2023-12-26T11:27:11.197Z,2319.9
2023-12-26T11:27:59.479Z,2319.9
2023-12-26T11:28:59.453Z,2347.8
2023-12-26T11:30:03.246Z,2265.1
2023-12-26T11:30:59.431Z,2058.4
2023-12-26T11:31:59.425Z,2133.6
2023-12-26T11:32:59.513Z,2404.6
2023-12-26T11:33:59.609Z,2211.5
2023-12-26T11:34:59.459Z,2159.2
2023-12-26T11:35:59.475Z,2492.4
2023-12-26T11:37:05.032Z,2462.8
2023-12-26T11:37:59.405Z,2677.9
2023-12-26T11:38:59.457Z,2677.9
2023-12-26T11:39:59.472Z,2710.1
2023-12-26T11:40:59.417Z,2614.6
2023-12-26T11:41:59.516Z,2677.9
2023-12-26T11:42:59.444Z,2877.1
2023-12-26T11:43:59.444Z,2809
2023-12-26T11:44:59.467Z,2877.1
2023-12-26T11:45:59.430Z,2946.7
2023-12-26T11:46:59.425Z,3018
2023-12-26T11:47:59.577Z,3018
2023-12-26T11:48:59.583Z,3018
2023-12-26T11:49:59.594Z,3018
2023-12-26T11:50:59.431Z,2877.1
2023-12-26T11:51:59.480Z,2492.4
2023-12-26T11:52:59.406Z,2677.9
2023-12-26T11:53:59.478Z,2877.1
2023-12-26T11:54:59.493Z,2911.7
2023-12-26T11:55:59.406Z,2877.1
2023-12-26T11:57:03.660Z,2877.1
2023-12-26T11:57:59.427Z,2842.8
2023-12-26T11:58:59.411Z,2877.1
2023-12-26T11:59:59.491Z,2877.1
2023-12-26T12:00:59.431Z,2809
2023-12-26T12:01:59.435Z,2946.7
2023-12-26T12:02:59.465Z,2877.1
2023-12-26T12:03:59.523Z,2742.6
2023-12-26T12:04:59.421Z,2742.6
2023-12-26T12:05:59.479Z,2809
2023-12-26T12:06:59.474Z,2775.6
2023-12-26T12:07:59.443Z,2742.6
2023-12-26T12:08:59.461Z,2710.1
2023-12-26T12:09:59.409Z,2742.6
2023-12-26T12:10:59.415Z,2710.1
2023-12-26T12:11:59.502Z,2742.6
2023-12-26T12:12:59.417Z,2775.6
2023-12-26T12:13:59.428Z,2775.6
2023-12-26T12:14:59.480Z,2809
2023-12-26T12:15:59.428Z,2809
2023-12-26T12:16:59.419Z,2842.8
2023-12-26T12:17:59.536Z,2877.1
2023-12-26T12:18:59.555Z,2911.7
2023-12-26T12:19:59.531Z,2946.7
2023-12-26T12:20:59.491Z,2982.2
2023-12-26T12:21:59.407Z,3018
2023-12-26T12:22:59.421Z,3054.3
2023-12-26T12:23:59.462Z,3091.1
2023-12-26T12:25:04.283Z,3128.2
2023-12-26T12:25:59.414Z,3165.8
2023-12-26T12:26:59.751Z,3165.8
2023-12-26T12:27:59.450Z,3128.2
2023-12-26T12:28:59.438Z,3165.8
2023-12-26T12:29:59.511Z,3165.8
2023-12-26T12:30:59.538Z,3281.6
2023-12-26T12:31:59.405Z,3483.7
2023-12-26T12:32:59.491Z,3483.7
2023-12-26T12:33:59.652Z,3568
2023-12-26T12:34:59.432Z,3611.1
2023-12-26T12:35:59.525Z,3698.5
2023-12-26T12:36:59.421Z,3833.5
2023-12-26T12:37:59.756Z,4021.3
2023-12-26T12:38:59.518Z,4168.3
2023-12-26T12:39:59.534Z,4532.1
2023-12-26T12:41:01.614Z,4869.3
2023-12-26T12:41:59.548Z,5231.6
2023-12-26T12:42:59.417Z,5294.6
2023-12-26T12:43:59.497Z,5107.8
2023-12-26T12:44:59.487Z,5107.8
2023-12-26T12:45:59.444Z,5231.6
2023-12-26T12:46:59.424Z,5231.6
2023-12-26T12:47:59.511Z,5231.6
2023-12-26T12:48:59.465Z,5107.8
2023-12-26T12:49:59.472Z,4987.1
2023-12-26T12:50:59.445Z,4372.4
2023-12-26T12:51:59.434Z,4269.1
2023-12-26T12:52:59.416Z,4118.8
2023-12-26T12:53:59.448Z,3742.9
2023-12-26T12:54:59.419Z,3165.8
2023-12-26T12:55:59.460Z,2877.1
2023-12-26T12:56:59.481Z,2982.2
2023-12-26T12:57:59.406Z,2911.7
2023-12-26T12:59:06.741Z,2646
2023-12-26T12:59:59.519Z,2552.8
2023-12-26T13:01:02.648Z,2710.1
2023-12-26T13:01:59.421Z,3091.1
2023-12-26T13:02:59.470Z,2877.1
2023-12-26T13:03:59.434Z,2809
2023-12-26T13:04:59.577Z,2583.5
2023-12-26T13:05:59.546Z,2433.5
2023-12-26T13:06:59.453Z,2646
2023-12-26T13:07:59.470Z,2946.7
2023-12-26T13:08:59.511Z,3401.4
2023-12-26T13:09:59.404Z,3654.5
2023-12-26T13:10:59.426Z,3654.5
2023-12-26T13:11:59.407Z,3788
2023-12-26T13:12:59.411Z,3926.3
2023-12-26T13:13:59.409Z,4021.3
2023-12-26T13:15:02.656Z,4069.8
2023-12-26T13:15:59.449Z,4168.3
2023-12-26T13:16:59.412Z,4168.3